Дата Время Давление Темп. Влажн. Скор.ветра Напр.ветра Макс.ветер Осадки/час Осадки
23.09.21 20:00 741.5 9.6 90.1 1 183 2.2 0 0.4
23.09.21 19:00 741.7 9.8 87.5 0.7 182 1.8 0 0.4
23.09.21 18:00 741.7 10.7 82.2 0.6 183 1.8 0 0.4
23.09.21 17:00 741.8 11 81.3 0.7 194 1.7 0 0.4
23.09.21 16:00 742.1 10.9 80 0.6 190 1.6 0 0.4
23.09.21 15:00 742.2 11.2 79 0.6 182 1.8 0 0.4
23.09.21 14:00 742.4 11.4 76.1 0.9 174 2.6 0 0.4
23.09.21 13:00 742.2 12.1 74.5 0.8 153 2.8 0 0.4
23.09.21 12:00 742.8 10.3 84.6 1 177 2.5 0 0.4
23.09.21 11:00 742.9 9.8 89 1.1 175 2.4 0 0.4
23.09.21 10:00 743.1 9.3 94.3 0.7 179 1.6 0 0.4
23.09.21 09:00 743.1 8.6 96.3 0.6 178 2.1 0 0.4
23.09.21 08:00 743.4 7.9 96.4 0.6 109 1.6 0 0.4
23.09.21 07:00 743.4 7.5 96.5 0.7 103 2.1 0 0.4
23.09.21 06:00 743.5 7.4 96.3 0.8 114 2.8 0 0.4
23.09.21 05:00 743.6 7.3 96 0.6 128 2.1 0 0.4
23.09.21 04:00 743.8 7.1 95.7 0.6 103 2.6 0.2 0.4
23.09.21 03:00 743.8 7 95.4 0.8 112 2.6 0.2 0.2
23.09.21 02:00 743.8 6.9 95.1 0.7 116 2.4 0 0
23.09.21 01:00 744 6.8 94.3 0.6 0 1.8 0 0
23.09.21 00:00 743.8 7.3 93.8 0.6 108 2.7 0 0.6
22.09.21 23:00 743.7 7.1 93.7 0.7 31 3.2 0 0.6
22.09.21 22:00 743.7 7.3 93.3 0.6 121 3 0 0.6
22.09.21 21:00 743.7 7.3 93 0.6 115 2.3 0 0.6